• Join FlightAware (Why Join?)
  • Login
  • US Flag 
11:23AM EST


 

Airport Tracker/Info


-or-


 

Live Flight TrackerFlight Track Log ✈ CFH24 ✈ 18-Apr-2012 ✈ YPDN / DRW - YPGV / GOV

Flight Track Log - Related Links

Times and Time Zones

All times are in EDT time to prevent confusion due to time zone crossing. See the CFH24 flight status page for this flight to view local times or setup timezone preferences in your user account.

Time Position Orientation Groundspeed Altitude Reporting Facility
EDT Latitude Longitude Course Direction KTS MPH feet Rate Location/Type
02:35AM -12.4230 130.9191 346° North 1,800  Level Aus ATC (Calculated)
02:36AM -12.4156 130.9172 63° Northeast 156 180 1,800 600 Level Aus ATC (RADAR)
02:36AM -12.4023 130.9437 64° Northeast 163 188 2,600 1,200 Climbing Aus ATC (RADAR)
02:37AM -12.3861 130.9777 85° East 181 208 3,500 480 Climbing Aus ATC (RADAR)
02:38AM -12.3810 131.0427 93° East 224 258 3,500 360 Level Aus ATC (RADAR)
02:39AM -12.3839 131.1003 91° East 214 246 4,300 480 Climbing Aus ATC (RADAR)
02:40AM -12.3850 131.1610 91° East 216 249 4,500 60 Climbing Aus ATC (RADAR)
02:41AM -12.3859 131.2104 90° East 228 262 4,500 420 Level Aus ATC (RADAR)
02:41AM -12.3860 131.2475 90° East 221 254 5,100 1,500 Climbing Aus ATC (RADAR)
02:42AM -12.3862 131.2923 90° East 183 211 6,700 1,680 Climbing Aus ATC (RADAR)
02:43AM -12.3864 131.3224 100° East 158 182 7,700 1,260 Climbing Aus ATC (RADAR)
02:44AM -12.3941 131.3669 112° Southeast 157 181 8,800 1,080 Climbing Aus ATC (RADAR)
02:45AM -12.4044 131.3923 111° Southeast 160 184 9,500 1,200 Climbing Aus ATC (RADAR)
02:45AM -12.4203 131.4339 116° Southeast 164 189 10,600 1,140 Climbing Aus ATC (RADAR)
02:46AM -12.4365 131.4675 117° Southeast 170 196 11,400 1,080 Climbing Aus ATC (RADAR)
02:47AM -12.4510 131.4969 95° East 168 193 12,200 1,140 Climbing Aus ATC (RADAR)
02:48AM -12.4548 131.5445 88° East 171 197 13,300 1,020 Climbing Aus ATC (RADAR)
02:49AM -12.4513 131.6258 87° East 172 198 15,000 1,020 Climbing Aus ATC (RADAR)
02:50AM -12.4491 131.6714 89° East 173 199 16,000 960 Climbing Aus ATC (RADAR)
02:51AM -12.4485 131.7047 88° East 173 199 16,600 960 Climbing Aus ATC (RADAR)
02:52AM -12.4477 131.7343 85° East 176 203 17,200 960 Climbing Aus ATC (RADAR)
02:52AM -12.4444 131.7757 91° East 174 200 18,000 900 Climbing Aus ATC (RADAR)
02:53AM -12.4449 131.8225 88° East 177 204 18,800 780 Climbing Aus ATC (RADAR)
02:54AM -12.4434 131.8729 85° East 176 203 19,600 780 Climbing Aus ATC (RADAR)
02:55AM -12.4395 131.9189 88° East 174 200 20,300 600 Climbing Aus ATC (RADAR)
02:56AM -12.4384 131.9616 92° East 179 206 20,700 600 Climbing Aus ATC (RADAR)
02:57AM -12.4394 131.9913 88° East 177 204 21,200 660 Climbing Aus ATC (RADAR)
02:58AM -12.4376 132.0334 88° East 176 203 21,700 540 Climbing Aus ATC (RADAR)
02:58AM -12.4361 132.0797 88° East 177 204 22,200 540 Climbing Aus ATC (RADAR)
03:00AM -12.4342 132.1349 88° East 177 204 22,900 600 Climbing Aus ATC (RADAR)
03:00AM -12.4323 132.1824 88° East 181 208 23,400 480 Climbing Aus ATC (RADAR)
03:01AM -12.4306 132.2255 88° East 182 209 23,800 600 Climbing Aus ATC (RADAR)
03:02AM -12.4296 132.2515 88° East 181 208 24,200 480 Climbing Aus ATC (RADAR)
03:03AM -12.4270 132.3343 88° East 186 214 24,800 120 Climbing Aus ATC (RADAR)
03:06AM -12.4207 132.4964 87° East 231 266 24,800  Level Aus ATC (RADAR)
03:08AM -12.4139 132.6480 88° East 239 275 24,800  Level Aus ATC (RADAR)
03:11AM -12.4090 132.8073 88° East 239 275 24,800  Level Aus ATC (RADAR)
03:13AM -12.4015 132.9956 89° East 239 275 24,800  Level Aus ATC (RADAR)
03:15AM -12.3988 133.1020 87° East 234 269 24,800  Level Aus ATC (RADAR)
03:17AM -12.3930 133.2245 88° East 234 269 24,800  Level Aus ATC (RADAR)
03:18AM -12.3893 133.3132 88° East 234 269 24,800  Level Aus ATC (RADAR)
03:19AM -12.3857 133.4072 87° East 233 268 24,800  Level Aus ATC (RADAR)
03:20AM -12.3837 133.4516 87° East 234 269 24,800  Level Aus ATC (RADAR)
03:21AM -12.3805 133.5238 87° East 234 269 24,800  Level Aus ATC (RADAR)
03:22AM -12.3788 133.5626 88° East 234 269 24,800  Level Aus ATC (RADAR)
03:23AM -12.3752 133.6745 88° East 238 274 24,800 -480 Level Aus ATC (RADAR)
03:24AM -12.3725 133.7478 87° East 265 305 23,600 -1,260 Descending Aus ATC (RADAR)
03:26AM -12.3667 133.8560 88° East 289 333 21,900 -1,260 Descending Aus ATC (RADAR)
03:27AM -12.3643 133.9223 86° East 281 323 20,900 -660 Descending Aus ATC (RADAR)
03:28AM -12.3599 133.9892 88° East 254 292 20,800 -60 Descending Aus ATC (RADAR)
03:29AM -12.3560 134.1000 89° East 230 265 20,800  Level Aus ATC (RADAR)
03:30AM -12.3555 134.1325 88° East 229 264 20,800  Level Aus ATC (RADAR)
03:30AM -12.3539 134.1705 86° East 229 264 20,800  Level Aus ATC (RADAR)
03:31AM -12.3497 134.2299 90° East 230 265 20,800  Level Aus ATC (RADAR)
03:32AM -12.3500 134.2740 87° East 232 267 20,800  Level Aus ATC (RADAR)
03:32AM -12.3483 134.3121 86° East 231 266 20,800  Level Aus ATC (RADAR)
03:33AM -12.3456 134.3503 89° East 230 265 20,800  Level Aus ATC (RADAR)
03:34AM -12.3442 134.4335 97° East 236 272 20,800  Level Aus ATC (RADAR)
03:37AM -12.3738 134.6906 97° East -6,780 Descending Aus ATC (Calculated)
03:38AM -12.3818 134.7603 360° North  Level Aus ATC (Calculated)
03:38AM -12.3818 134.7603 144° Southeast  Level Aus ATC (Calculated)
03:38AM -12.3818 134.7603 97° East  Level Aus ATC (Calculated)
03:44AM -12.4189 135.0869 85° East  Level Aus ATC (Calculated)
03:45AM -12.4117 135.1766 84° East  Level Estimated
03:46AM -12.2779 136.4681 89° East  Level FlightAware Approximate
03:47AM -12.2771 136.5452 86° East  Level Estimated
03:48AM -12.2719 136.6307 91° East  Level FlightAware Approximate
03:49AM -12.2727 136.7078 85° East  Level Estimated
03:50AM -12.2664 136.7786 100° East  Level FlightAware Approximate
03:51AM -12.2789 136.8546 290° West  Level Estimated
03:52AM -12.2650 136.8164 141° Southeast  Level FlightAware Approximate
03:53AM -12.3232 136.8654 141° Southeast  Level Estimated